sensor_id;sensor_type;location;lat;lon;timestamp;temperature;humidity
4429;DHT22;2227;47.810;8.810;2022-09-23T03:46:07;6.40;99.90
4429;DHT22;2227;47.810;8.810;2022-09-23T03:48:34;6.30;99.90
4429;DHT22;2227;47.810;8.810;2022-09-23T03:51:19;6.30;99.90
4429;DHT22;2227;47.810;8.810;2022-09-23T03:53:46;6.30;99.90
4429;DHT22;2227;47.810;8.810;2022-09-23T03:56:13;6.30;99.90
4429;DHT22;2227;47.810;8.810;2022-09-23T03:58:40;6.30;99.90
4429;DHT22;2227;47.810;8.810;2022-09-23T04:01:07;6.30;99.90
4429;DHT22;2227;47.810;8.810;2022-09-23T04:03:34;6.20;99.90
4429;DHT22;2227;47.810;8.810;2022-09-23T04:06:01;6.20;99.90
4429;DHT22;2227;47.810;8.810;2022-09-23T04:08:28;6.20;99.90
4429;DHT22;2227;47.810;8.810;2022-09-23T04:10:59;6.20;99.90
4429;DHT22;2227;47.810;8.810;2022-09-23T04:13:27;6.20;99.90
4429;DHT22;2227;47.810;8.810;2022-09-23T04:15:54;6.20;99.90
4429;DHT22;2227;47.810;8.810;2022-09-23T04:18:21;6.10;99.90
4429;DHT22;2227;47.810;8.810;2022-09-23T04:20:49;6.00;99.90
4429;DHT22;2227;47.810;8.810;2022-09-23T04:23:15;6.00;99.90
4429;DHT22;2227;47.810;8.810;2022-09-23T04:25:48;6.00;99.90
4429;DHT22;2227;47.810;8.810;2022-09-23T04:28:15;6.00;99.90
4429;DHT22;2227;47.810;8.810;2022-09-23T04:30:42;5.90;99.90
4429;DHT22;2227;47.810;8.810;2022-09-23T04:33:10;5.90;99.90
4429;DHT22;2227;47.810;8.810;2022-09-23T04:35:38;5.90;99.90
4429;DHT22;2227;47.810;8.810;2022-09-23T04:38:06;5.90;99.90
4429;DHT22;2227;47.810;8.810;2022-09-23T04:40:34;5.90;99.90
4429;DHT22;2227;47.810;8.810;2022-09-23T04:43:02;6.00;99.90
4429;DHT22;2227;47.810;8.810;2022-09-23T04:45:28;5.90;99.90
4429;DHT22;2227;47.810;8.810;2022-09-23T04:47:55;5.90;99.90
4429;DHT22;2227;47.810;8.810;2022-09-23T04:50:24;6.00;99.90
4429;DHT22;2227;47.810;8.810;2022-09-23T04:52:52;5.90;99.90
4429;DHT22;2227;47.810;8.810;2022-09-23T04:55:20;5.90;99.90
4429;DHT22;2227;47.810;8.810;2022-09-23T04:57:47;5.90;99.90
4429;DHT22;2227;47.810;8.810;2022-09-23T05:00:14;6.00;99.90
4429;DHT22;2227;47.810;8.810;2022-09-23T05:02:45;6.00;99.90
4429;DHT22;2227;47.810;8.810;2022-09-23T05:05:13;6.00;99.90
4429;DHT22;2227;47.810;8.810;2022-09-23T05:07:40;6.00;99.90
4429;DHT22;2227;47.810;8.810;2022-09-23T05:10:07;6.10;99.90
4429;DHT22;2227;47.810;8.810;2022-09-23T05:12:33;6.00;99.90
4429;DHT22;2227;47.810;8.810;2022-09-23T05:15:00;6.00;99.90
4429;DHT22;2227;47.810;8.810;2022-09-23T05:17:27;6.00;99.90
4429;DHT22;2227;47.810;8.810;2022-09-23T05:19:57;6.10;99.90
4429;DHT22;2227;47.810;8.810;2022-09-23T05:22:25;6.10;99.90
4429;DHT22;2227;47.810;8.810;2022-09-23T05:24:52;6.10;99.90
4429;DHT22;2227;47.810;8.810;2022-09-23T05:27:19;6.10;99.90
4429;DHT22;2227;47.810;8.810;2022-09-23T05:29:46;6.00;99.90
4429;DHT22;2227;47.810;8.810;2022-09-23T05:32:13;6.00;99.90
4429;DHT22;2227;47.810;8.810;2022-09-23T05:34:40;5.90;99.90
4429;DHT22;2227;47.810;8.810;2022-09-23T05:37:07;6.10;99.90
4429;DHT22;2227;47.810;8.810;2022-09-23T05:39:34;6.10;99.90
4429;DHT22;2227;47.810;8.810;2022-09-23T05:42:01;6.30;99.90
4429;DHT22;2227;47.810;8.810;2022-09-23T05:44:28;6.30;99.90
4429;DHT22;2227;47.810;8.810;2022-09-23T05:46:55;6.40;99.90
4429;DHT22;2227;47.810;8.810;2022-09-23T05:49:22;6.50;99.90
4429;DHT22;2227;47.810;8.810;2022-09-23T05:52:08;6.50;99.90
4429;DHT22;2227;47.810;8.810;2022-09-23T05:54:35;6.50;99.90
4429;DHT22;2227;47.810;8.810;2022-09-23T05:57:02;6.50;99.90
4429;DHT22;2227;47.810;8.810;2022-09-23T05:59:30;6.50;99.90
4429;DHT22;2227;47.810;8.810;2022-09-23T06:01:57;6.60;99.90
4429;DHT22;2227;47.810;8.810;2022-09-23T06:04:24;6.70;99.90
4429;DHT22;2227;47.810;8.810;2022-09-23T06:06:51;6.70;99.90
4429;DHT22;2227;47.810;8.810;2022-09-23T06:09:18;6.80;99.90
4429;DHT22;2227;47.810;8.810;2022-09-23T06:11:45;6.80;99.90
4429;DHT22;2227;47.810;8.810;2022-09-23T06:14:12;6.90;99.90
4429;DHT22;2227;47.810;8.810;2022-09-23T06:16:40;7.00;99.90
4429;DHT22;2227;47.810;8.810;2022-09-23T06:19:07;7.00;99.90
4429;DHT22;2227;47.810;8.810;2022-09-23T06:21:36;7.10;99.90
4429;DHT22;2227;47.810;8.810;2022-09-23T06:24:04;7.20;99.90
4429;DHT22;2227;47.810;8.810;2022-09-23T06:26:31;7.30;99.90
4429;DHT22;2227;47.810;8.810;2022-09-23T06:29:09;7.40;99.90
4429;DHT22;2227;47.810;8.810;2022-09-23T06:31:37;7.50;99.90
4429;DHT22;2227;47.810;8.810;2022-09-23T06:34:09;7.60;99.90
4429;DHT22;2227;47.810;8.810;2022-09-23T06:36:40;7.70;99.90
4429;DHT22;2227;47.810;8.810;2022-09-23T06:39:11;7.80;99.90
4429;DHT22;2227;47.810;8.810;2022-09-23T06:41:38;7.90;99.90
4429;DHT22;2227;47.810;8.810;2022-09-23T06:44:04;8.10;99.90
4429;DHT22;2227;47.810;8.810;2022-09-23T06:46:31;8.20;99.90
4429;DHT22;2227;47.810;8.810;2022-09-23T06:48:58;8.40;99.90
4429;DHT22;2227;47.810;8.810;2022-09-23T06:51:25;8.60;99.90
4429;DHT22;2227;47.810;8.810;2022-09-23T06:53:52;8.70;99.90
4429;DHT22;2227;47.810;8.810;2022-09-23T06:56:18;8.90;99.90
4429;DHT22;2227;47.810;8.810;2022-09-23T06:58:47;9.20;99.90
4429;DHT22;2227;47.810;8.810;2022-09-23T07:01:17;9.30;99.90
4429;DHT22;2227;47.810;8.810;2022-09-23T07:03:45;9.60;99.90
4429;DHT22;2227;47.810;8.810;2022-09-23T07:06:13;9.80;99.90
4429;DHT22;2227;47.810;8.810;2022-09-23T07:08:42;10.00;99.90
4429;DHT22;2227;47.810;8.810;2022-09-23T07:11:10;10.10;99.90
4429;DHT22;2227;47.810;8.810;2022-09-23T07:13:39;10.30;99.90
4429;DHT22;2227;47.810;8.810;2022-09-23T07:16:08;10.60;99.90
4429;DHT22;2227;47.810;8.810;2022-09-23T07:18:35;10.80;99.90
4429;DHT22;2227;47.810;8.810;2022-09-23T07:21:11;11.10;99.90
4429;DHT22;2227;47.810;8.810;2022-09-23T07:23:41;11.50;99.90
4429;DHT22;2227;47.810;8.810;2022-09-23T07:26:09;11.80;99.90
4429;DHT22;2227;47.810;8.810;2022-09-23T07:28:35;12.10;99.90
4429;DHT22;2227;47.810;8.810;2022-09-23T07:31:08;12.40;99.90
4429;DHT22;2227;47.810;8.810;2022-09-23T07:33:37;12.70;99.90
4429;DHT22;2227;47.810;8.810;2022-09-23T07:36:09;12.80;99.90
4429;DHT22;2227;47.810;8.810;2022-09-23T07:38:36;13.10;99.90
4429;DHT22;2227;47.810;8.810;2022-09-23T07:41:12;13.50;99.90
4429;DHT22;2227;47.810;8.810;2022-09-23T07:43:39;13.80;99.90
4429;DHT22;2227;47.810;8.810;2022-09-23T07:46:09;14.00;99.90
4429;DHT22;2227;47.810;8.810;2022-09-23T07:48:37;14.30;99.90
4429;DHT22;2227;47.810;8.810;2022-09-23T07:51:10;14.70;99.90
4429;DHT22;2227;47.810;8.810;2022-09-23T07:53:38;15.10;99.90
4429;DHT22;2227;47.810;8.810;2022-09-23T07:56:05;15.20;99.90
4429;DHT22;2227;47.810;8.810;2022-09-23T07:58:33;15.20;99.90
4429;DHT22;2227;47.810;8.810;2022-09-23T08:01:02;15.40;99.90
4429;DHT22;2227;47.810;8.810;2022-09-23T08:03:29;15.70;99.90
4429;DHT22;2227;47.810;8.810;2022-09-23T08:06:06;15.90;99.90
4429;DHT22;2227;47.810;8.810;2022-09-23T08:08:33;16.00;99.90
4429;DHT22;2227;47.810;8.810;2022-09-23T08:11:02;16.10;99.90
4429;DHT22;2227;47.810;8.810;2022-09-23T08:13:29;16.00;99.90
4429;DHT22;2227;47.810;8.810;2022-09-23T08:15:57;16.00;99.90
4429;DHT22;2227;47.810;8.810;2022-09-23T08:18:24;16.00;99.90
4429;DHT22;2227;47.810;8.810;2022-09-23T08:20:51;16.10;99.90
4429;DHT22;2227;47.810;8.810;2022-09-23T08:23:18;16.20;99.90
4429;DHT22;2227;47.810;8.810;2022-09-23T08:25:46;16.40;99.90
4429;DHT22;2227;47.810;8.810;2022-09-23T08:28:14;16.40;99.90
4429;DHT22;2227;47.810;8.810;2022-09-23T08:30:46;16.50;99.90
4429;DHT22;2227;47.810;8.810;2022-09-23T08:33:13;16.60;99.90
4429;DHT22;2227;47.810;8.810;2022-09-23T08:35:45;16.80;99.90
4429;DHT22;2227;47.810;8.810;2022-09-23T08:38:11;16.80;99.90
4429;DHT22;2227;47.810;8.810;2022-09-23T08:40:42;17.00;99.90
4429;DHT22;2227;47.810;8.810;2022-09-23T08:43:24;17.20;99.90
4429;DHT22;2227;47.810;8.810;2022-09-23T08:45:53;17.50;99.90
4429;DHT22;2227;47.810;8.810;2022-09-23T08:48:32;17.80;99.90
4429;DHT22;2227;47.810;8.810;2022-09-23T08:51:42;17.90;99.70
4429;DHT22;2227;47.810;8.810;2022-09-23T08:54:10;18.30;98.80
4429;DHT22;2227;47.810;8.810;2022-09-23T08:56:37;19.10;97.70
4429;DHT22;2227;47.810;8.810;2022-09-23T08:59:19;20.00;96.20
4429;DHT22;2227;47.810;8.810;2022-09-23T09:01:51;20.70;94.70
4429;DHT22;2227;47.810;8.810;2022-09-23T09:10:08;22.90;87.20
4429;DHT22;2227;47.810;8.810;2022-09-23T09:12:47;23.40;84.00
4429;DHT22;2227;47.810;8.810;2022-09-23T09:15:21;24.30;80.50
4429;DHT22;2227;47.810;8.810;2022-09-23T09:18:06;24.50;78.40
4429;DHT22;2227;47.810;8.810;2022-09-23T09:20:55;24.80;75.90
4429;DHT22;2227;47.810;8.810;2022-09-23T09:23:37;24.50;76.30
4429;DHT22;2227;47.810;8.810;2022-09-23T09:26:10;24.10;76.30
4429;DHT22;2227;47.810;8.810;2022-09-23T09:29:03;23.90;77.50
4429;DHT22;2227;47.810;8.810;2022-09-23T09:31:51;23.30;78.60
4429;DHT22;2227;47.810;8.810;2022-09-23T09:34:39;22.80;80.50
4429;DHT22;2227;47.810;8.810;2022-09-23T09:37:22;22.90;81.30
4429;DHT22;2227;47.810;8.810;2022-09-23T09:39:50;23.00;81.10
4429;DHT22;2227;47.810;8.810;2022-09-23T09:42:23;22.80;81.30
4429;DHT22;2227;47.810;8.810;2022-09-23T09:45:03;22.50;82.30
4429;DHT22;2227;47.810;8.810;2022-09-23T09:50:49;22.70;81.80
4429;DHT22;2227;47.810;8.810;2022-09-23T09:53:24;22.70;81.80
4429;DHT22;2227;47.810;8.810;2022-09-23T09:56:04;22.90;81.40
4429;DHT22;2227;47.810;8.810;2022-09-23T10:01:31;22.80;81.70
4429;DHT22;2227;47.810;8.810;2022-09-23T10:09:38;24.20;76.00
4429;DHT22;2227;47.810;8.810;2022-09-23T10:12:19;24.00;76.10
4429;DHT22;2227;47.810;8.810;2022-09-23T10:14:48;23.90;76.90
4429;DHT22;2227;47.810;8.810;2022-09-23T10:17:24;23.30;78.00
4429;DHT22;2227;47.810;8.810;2022-09-23T10:19:58;23.90;76.70
4429;DHT22;2227;47.810;8.810;2022-09-23T10:22:31;24.20;76.00
4429;DHT22;2227;47.810;8.810;2022-09-23T10:25:01;25.50;73.50
4429;DHT22;2227;47.810;8.810;2022-09-23T10:27:31;26.20;70.00
4429;DHT22;2227;47.810;8.810;2022-09-23T10:30:20;26.20;70.10
4429;DHT22;2227;47.810;8.810;2022-09-23T10:32:48;26.30;68.50
4429;DHT22;2227;47.810;8.810;2022-09-23T10:35:17;25.50;70.60
4429;DHT22;2227;47.810;8.810;2022-09-23T10:37:52;25.20;70.80
4429;DHT22;2227;47.810;8.810;2022-09-23T10:40:29;25.30;70.10
4429;DHT22;2227;47.810;8.810;2022-09-23T10:43:36;24.50;71.60
4429;DHT22;2227;47.810;8.810;2022-09-23T10:49:43;24.90;71.40
4429;DHT22;2227;47.810;8.810;2022-09-23T11:03:11;26.20;68.30
4429;DHT22;2227;47.810;8.810;2022-09-23T11:11:27;25.20;69.70
4429;DHT22;2227;47.810;8.810;2022-09-23T11:30:32;24.70;68.20
4429;DHT22;2227;47.810;8.810;2022-09-23T11:33:19;24.30;70.10
4429;DHT22;2227;47.810;8.810;2022-09-23T11:35:58;24.00;71.80
4429;DHT22;2227;47.810;8.810;2022-09-23T11:38:31;24.20;71.20
4429;DHT22;2227;47.810;8.810;2022-09-23T11:41:13;23.80;73.00
4429;DHT22;2227;47.810;8.810;2022-09-23T11:43:43;24.70;70.60
4429;DHT22;2227;47.810;8.810;2022-09-23T11:49:14;24.60;69.60
4429;DHT22;2227;47.810;8.810;2022-09-23T11:55:11;24.60;68.50
4429;DHT22;2227;47.810;8.810;2022-09-23T11:57:51;24.50;69.90
4429;DHT22;2227;47.810;8.810;2022-09-23T12:00:22;24.20;70.40
4429;DHT22;2227;47.810;8.810;2022-09-23T12:03:46;24.30;71.10
4429;DHT22;2227;47.810;8.810;2022-09-23T12:06:19;24.70;70.50
4429;DHT22;2227;47.810;8.810;2022-09-23T12:08:50;24.50;70.40
4429;DHT22;2227;47.810;8.810;2022-09-23T12:11:32;24.40;70.00
4429;DHT22;2227;47.810;8.810;2022-09-23T12:25:34;22.90;75.90
4429;DHT22;2227;47.810;8.810;2022-09-23T12:28:15;22.70;76.10
4429;DHT22;2227;47.810;8.810;2022-09-23T12:30:45;22.30;78.80
4429;DHT22;2227;47.810;8.810;2022-09-23T12:33:25;22.10;79.10
4429;DHT22;2227;47.810;8.810;2022-09-23T12:36:02;22.30;78.90
4429;DHT22;2227;47.810;8.810;2022-09-23T12:38:49;22.40;78.30
4429;DHT22;2227;47.810;8.810;2022-09-23T12:43:58;23.00;76.10
4429;DHT22;2227;47.810;8.810;2022-09-23T12:46:26;23.20;76.40
4429;DHT22;2227;47.810;8.810;2022-09-23T12:51:33;23.50;74.90
4429;DHT22;2227;47.810;8.810;2022-09-23T13:01:42;23.30;74.00
4429;DHT22;2227;47.810;8.810;2022-09-23T13:04:30;22.70;75.60
4429;DHT22;2227;47.810;8.810;2022-09-23T13:07:24;22.90;74.90
4429;DHT22;2227;47.810;8.810;2022-09-23T13:09:58;23.00;72.20
4429;DHT22;2227;47.810;8.810;2022-09-23T13:12:32;23.20;70.70
4429;DHT22;2227;47.810;8.810;2022-09-23T13:15:03;23.20;71.80
4429;DHT22;2227;47.810;8.810;2022-09-23T13:17:36;23.50;70.10
4429;DHT22;2227;47.810;8.810;2022-09-23T13:25:23;23.80;66.90
4429;DHT22;2227;47.810;8.810;2022-09-23T13:27:54;24.10;67.70
4429;DHT22;2227;47.810;8.810;2022-09-23T13:30:23;23.60;67.10
4429;DHT22;2227;47.810;8.810;2022-09-23T13:33:11;23.40;68.60
4429;DHT22;2227;47.810;8.810;2022-09-23T13:35:47;23.50;69.00
4429;DHT22;2227;47.810;8.810;2022-09-23T13:38:24;23.70;68.30
4429;DHT22;2227;47.810;8.810;2022-09-23T13:41:02;24.10;67.30
4429;DHT22;2227;47.810;8.810;2022-09-23T13:43:36;24.70;66.70
4429;DHT22;2227;47.810;8.810;2022-09-23T13:46:18;25.10;63.80
4429;DHT22;2227;47.810;8.810;2022-09-23T13:48:47;24.90;62.80
4429;DHT22;2227;47.810;8.810;2022-09-23T13:51:20;23.90;64.80
4429;DHT22;2227;47.810;8.810;2022-09-23T13:53:56;23.60;67.00
4429;DHT22;2227;47.810;8.810;2022-09-23T13:56:25;23.80;67.10
4429;DHT22;2227;47.810;8.810;2022-09-23T13:58:53;23.90;68.30
4429;DHT22;2227;47.810;8.810;2022-09-23T14:01:30;23.90;69.00
4429;DHT22;2227;47.810;8.810;2022-09-23T14:03:58;23.90;70.00
4429;DHT22;2227;47.810;8.810;2022-09-23T14:06:25;24.10;70.60
4429;DHT22;2227;47.810;8.810;2022-09-23T14:08:53;24.50;69.30
4429;DHT22;2227;47.810;8.810;2022-09-23T14:11:38;24.70;65.90
4429;DHT22;2227;47.810;8.810;2022-09-23T14:14:05;24.70;65.20
4429;DHT22;2227;47.810;8.810;2022-09-23T14:16:36;24.20;66.10
4429;DHT22;2227;47.810;8.810;2022-09-23T14:19:03;24.10;66.50
4429;DHT22;2227;47.810;8.810;2022-09-23T14:21:33;24.40;66.80
4429;DHT22;2227;47.810;8.810;2022-09-23T14:29:37;24.50;66.70
4429;DHT22;2227;47.810;8.810;2022-09-23T14:45:37;23.00;71.90
4429;DHT22;2227;47.810;8.810;2022-09-23T14:48:24;23.30;72.10
4429;DHT22;2227;47.810;8.810;2022-09-23T14:50:57;23.20;72.20
4429;DHT22;2227;47.810;8.810;2022-09-23T14:53:41;23.30;72.50
4429;DHT22;2227;47.810;8.810;2022-09-23T14:59:00;23.30;73.30
4429;DHT22;2227;47.810;8.810;2022-09-23T15:06:36;21.80;77.20
4429;DHT22;2227;47.810;8.810;2022-09-23T15:09:04;21.50;79.60
4429;DHT22;2227;47.810;8.810;2022-09-23T15:11:33;21.30;80.10
4429;DHT22;2227;47.810;8.810;2022-09-23T15:14:02;21.30;82.50
4429;DHT22;2227;47.810;8.810;2022-09-23T15:16:51;21.20;83.30
4429;DHT22;2227;47.810;8.810;2022-09-23T15:19:20;21.10;84.50
4429;DHT22;2227;47.810;8.810;2022-09-23T15:21:51;21.00;85.20
4429;DHT22;2227;47.810;8.810;2022-09-23T15:27:09;20.90;84.80
4429;DHT22;2227;47.810;8.810;2022-09-23T15:29:37;20.80;83.90
4429;DHT22;2227;47.810;8.810;2022-09-23T15:32:04;20.70;84.00
4429;DHT22;2227;47.810;8.810;2022-09-23T15:34:33;20.60;84.50
4429;DHT22;2227;47.810;8.810;2022-09-23T15:37:00;20.60;85.00
4429;DHT22;2227;47.810;8.810;2022-09-23T15:39:27;20.50;86.20
4429;DHT22;2227;47.810;8.810;2022-09-23T15:42:02;20.30;86.60
4429;DHT22;2227;47.810;8.810;2022-09-23T15:44:28;20.20;87.50
4429;DHT22;2227;47.810;8.810;2022-09-23T15:46:56;20.10;87.40
4429;DHT22;2227;47.810;8.810;2022-09-23T15:49:33;20.10;87.70
4429;DHT22;2227;47.810;8.810;2022-09-23T15:52:03;20.00;87.90
4429;DHT22;2227;47.810;8.810;2022-09-23T15:54:30;19.90;88.30
4429;DHT22;2227;47.810;8.810;2022-09-23T15:57:00;20.00;89.80
4429;DHT22;2227;47.810;8.810;2022-09-23T15:59:28;20.00;89.40
4429;DHT22;2227;47.810;8.810;2022-09-23T16:01:59;20.00;90.00
4429;DHT22;2227;47.810;8.810;2022-09-23T16:04:26;20.10;90.20
4429;DHT22;2227;47.810;8.810;2022-09-23T16:06:53;20.10;90.20
4429;DHT22;2227;47.810;8.810;2022-09-23T16:09:20;20.00;90.50
4429;DHT22;2227;47.810;8.810;2022-09-23T16:11:47;20.00;90.80
4429;DHT22;2227;47.810;8.810;2022-09-23T16:14:16;19.80;90.50
4429;DHT22;2227;47.810;8.810;2022-09-23T16:16:44;19.70;91.10
4429;DHT22;2227;47.810;8.810;2022-09-23T16:19:13;19.50;91.50
4429;DHT22;2227;47.810;8.810;2022-09-23T16:21:41;19.40;91.40
4429;DHT22;2227;47.810;8.810;2022-09-23T16:24:16;19.30;91.80
4429;DHT22;2227;47.810;8.810;2022-09-23T16:26:44;19.30;92.20
4429;DHT22;2227;47.810;8.810;2022-09-23T16:29:12;19.30;91.90
4429;DHT22;2227;47.810;8.810;2022-09-23T16:31:39;19.30;92.30
4429;DHT22;2227;47.810;8.810;2022-09-23T16:34:06;19.20;92.90
4429;DHT22;2227;47.810;8.810;2022-09-23T16:36:40;19.20;93.40
4429;DHT22;2227;47.810;8.810;2022-09-23T16:39:10;19.00;94.20
4429;DHT22;2227;47.810;8.810;2022-09-23T16:41:38;18.90;94.70
4429;DHT22;2227;47.810;8.810;2022-09-23T16:44:06;18.70;95.20
4429;DHT22;2227;47.810;8.810;2022-09-23T16:46:34;18.60;95.80
4429;DHT22;2227;47.810;8.810;2022-09-23T16:49:01;18.50;96.20
4429;DHT22;2227;47.810;8.810;2022-09-23T16:51:31;18.40;96.50
4429;DHT22;2227;47.810;8.810;2022-09-23T16:54:05;18.30;96.80
4429;DHT22;2227;47.810;8.810;2022-09-23T16:56:37;18.30;96.90
4429;DHT22;2227;47.810;8.810;2022-09-23T16:59:04;18.20;97.60
4429;DHT22;2227;47.810;8.810;2022-09-23T17:01:30;18.20;97.90
4429;DHT22;2227;47.810;8.810;2022-09-23T17:04:16;18.20;98.30
4429;DHT22;2227;47.810;8.810;2022-09-23T17:06:46;18.10;98.40
4429;DHT22;2227;47.810;8.810;2022-09-23T17:09:20;18.20;98.50
4429;DHT22;2227;47.810;8.810;2022-09-23T17:11:54;18.20;98.60
4429;DHT22;2227;47.810;8.810;2022-09-23T17:14:23;18.20;98.40
4429;DHT22;2227;47.810;8.810;2022-09-23T17:16:50;18.20;98.50
4429;DHT22;2227;47.810;8.810;2022-09-23T17:19:16;18.20;98.60
4429;DHT22;2227;47.810;8.810;2022-09-23T17:21:43;18.20;98.90
4429;DHT22;2227;47.810;8.810;2022-09-23T17:24:10;18.20;99.20
4429;DHT22;2227;47.810;8.810;2022-09-23T17:26:37;18.20;99.60
4429;DHT22;2227;47.810;8.810;2022-09-23T17:29:03;18.20;99.80
4429;DHT22;2227;47.810;8.810;2022-09-23T17:31:31;18.20;99.90
4429;DHT22;2227;47.810;8.810;2022-09-23T17:33:58;18.30;99.90
4429;DHT22;2227;47.810;8.810;2022-09-23T17:36:24;18.20;99.90
4429;DHT22;2227;47.810;8.810;2022-09-23T17:38:53;18.20;99.90
4429;DHT22;2227;47.810;8.810;2022-09-23T17:41:20;18.30;99.90
4429;DHT22;2227;47.810;8.810;2022-09-23T17:43:53;18.30;99.90
4429;DHT22;2227;47.810;8.810;2022-09-23T17:46:20;18.30;99.90
4429;DHT22;2227;47.810;8.810;2022-09-23T17:48:47;18.20;99.90
4429;DHT22;2227;47.810;8.810;2022-09-23T17:51:16;18.20;99.90
4429;DHT22;2227;47.810;8.810;2022-09-23T17:53:45;18.10;99.90
4429;DHT22;2227;47.810;8.810;2022-09-23T17:58:46;17.90;99.90
4429;DHT22;2227;47.810;8.810;2022-09-23T18:01:19;17.90;99.90
4429;DHT22;2227;47.810;8.810;2022-09-23T18:03:47;17.80;99.90
4429;DHT22;2227;47.810;8.810;2022-09-23T18:06:20;17.70;99.90
4429;DHT22;2227;47.810;8.810;2022-09-23T18:08:47;17.60;99.90
4429;DHT22;2227;47.810;8.810;2022-09-23T18:11:19;17.40;99.90
4429;DHT22;2227;47.810;8.810;2022-09-23T18:13:53;17.30;99.90
4429;DHT22;2227;47.810;8.810;2022-09-23T18:16:22;17.20;99.90
4429;DHT22;2227;47.810;8.810;2022-09-23T18:18:53;17.20;99.90
4429;DHT22;2227;47.810;8.810;2022-09-23T18:21:22;17.10;99.90
4429;DHT22;2227;47.810;8.810;2022-09-23T18:23:49;17.00;99.90
4429;DHT22;2227;47.810;8.810;2022-09-23T18:26:18;17.00;99.90
4429;DHT22;2227;47.810;8.810;2022-09-23T18:28:46;16.90;99.90
4429;DHT22;2227;47.810;8.810;2022-09-23T18:31:14;16.90;99.90
4429;DHT22;2227;47.810;8.810;2022-09-23T18:33:41;16.90;99.90
4429;DHT22;2227;47.810;8.810;2022-09-23T18:36:08;16.80;99.90
4429;DHT22;2227;47.810;8.810;2022-09-23T18:38:35;16.80;99.90
4429;DHT22;2227;47.810;8.810;2022-09-23T18:41:02;16.70;99.90
4429;DHT22;2227;47.810;8.810;2022-09-23T18:43:30;16.70;99.90
4429;DHT22;2227;47.810;8.810;2022-09-23T18:46:06;16.70;99.90
4429;DHT22;2227;47.810;8.810;2022-09-23T18:48:35;16.70;99.90
4429;DHT22;2227;47.810;8.810;2022-09-23T18:51:22;16.70;99.90
4429;DHT22;2227;47.810;8.810;2022-09-23T18:53:51;16.70;99.90
4429;DHT22;2227;47.810;8.810;2022-09-23T18:56:28;16.60;99.90
4429;DHT22;2227;47.810;8.810;2022-09-23T18:58:59;16.60;99.90
4429;DHT22;2227;47.810;8.810;2022-09-23T19:01:26;16.50;99.90
4429;DHT22;2227;47.810;8.810;2022-09-23T19:03:54;16.40;99.90
4429;DHT22;2227;47.810;8.810;2022-09-23T19:06:21;16.40;99.90
4429;DHT22;2227;47.810;8.810;2022-09-23T19:08:50;16.30;99.90
4429;DHT22;2227;47.810;8.810;2022-09-23T19:11:18;16.30;99.90
4429;DHT22;2227;47.810;8.810;2022-09-23T19:13:45;16.20;99.90
4429;DHT22;2227;47.810;8.810;2022-09-23T19:16:15;16.00;99.90
4429;DHT22;2227;47.810;8.810;2022-09-23T19:18:43;16.00;99.90
4429;DHT22;2227;47.810;8.810;2022-09-23T19:21:16;15.90;99.90
4429;DHT22;2227;47.810;8.810;2022-09-23T19:23:48;15.80;99.90
4429;DHT22;2227;47.810;8.810;2022-09-23T19:26:18;15.80;99.90
4429;DHT22;2227;47.810;8.810;2022-09-23T19:28:53;15.80;99.90
4429;DHT22;2227;47.810;8.810;2022-09-23T19:31:43;15.70;99.90
4429;DHT22;2227;47.810;8.810;2022-09-23T19:34:15;15.70;99.90
4429;DHT22;2227;47.810;8.810;2022-09-23T19:36:44;15.70;99.90
4429;DHT22;2227;47.810;8.810;2022-09-23T19:39:20;15.70;99.90
4429;DHT22;2227;47.810;8.810;2022-09-23T19:41:48;15.70;99.90
4429;DHT22;2227;47.810;8.810;2022-09-23T19:44:15;15.60;99.90
4429;DHT22;2227;47.810;8.810;2022-09-23T19:46:43;15.50;99.90
4429;DHT22;2227;47.810;8.810;2022-09-23T19:49:11;15.50;99.90
4429;DHT22;2227;47.810;8.810;2022-09-23T19:51:39;15.40;99.90
4429;DHT22;2227;47.810;8.810;2022-09-23T19:54:07;15.40;99.90
4429;DHT22;2227;47.810;8.810;2022-09-23T19:56:35;15.40;99.90
4429;DHT22;2227;47.810;8.810;2022-09-23T19:59:02;15.40;99.90
4429;DHT22;2227;47.810;8.810;2022-09-23T20:01:31;15.40;99.90
4429;DHT22;2227;47.810;8.810;2022-09-23T20:03:59;15.40;99.90
4429;DHT22;2227;47.810;8.810;2022-09-23T20:06:33;15.30;99.90
4429;DHT22;2227;47.810;8.810;2022-09-23T20:09:00;15.30;99.90
4429;DHT22;2227;47.810;8.810;2022-09-23T20:11:28;15.20;99.90
4429;DHT22;2227;47.810;8.810;2022-09-23T20:13:57;15.20;99.90
4429;DHT22;2227;47.810;8.810;2022-09-23T20:16:30;15.10;99.90
4429;DHT22;2227;47.810;8.810;2022-09-23T20:18:58;15.10;99.90
4429;DHT22;2227;47.810;8.810;2022-09-23T20:21:27;15.10;99.90
4429;DHT22;2227;47.810;8.810;2022-09-23T20:23:55;15.00;99.90
4429;DHT22;2227;47.810;8.810;2022-09-23T20:26:22;15.00;99.90
4429;DHT22;2227;47.810;8.810;2022-09-23T20:29:07;14.90;99.90
4429;DHT22;2227;47.810;8.810;2022-09-23T20:31:36;14.90;99.90
4429;DHT22;2227;47.810;8.810;2022-09-23T20:34:03;14.90;99.90
4429;DHT22;2227;47.810;8.810;2022-09-23T20:36:32;14.90;99.90
4429;DHT22;2227;47.810;8.810;2022-09-23T20:39:03;14.80;99.90
4429;DHT22;2227;47.810;8.810;2022-09-23T20:41:34;14.80;99.90
4429;DHT22;2227;47.810;8.810;2022-09-23T20:44:05;14.80;99.90
4429;DHT22;2227;47.810;8.810;2022-09-23T20:46:33;14.70;99.90
4429;DHT22;2227;47.810;8.810;2022-09-23T20:49:00;14.70;99.90
4429;DHT22;2227;47.810;8.810;2022-09-23T20:51:27;14.70;99.90
4429;DHT22;2227;47.810;8.810;2022-09-23T20:53:54;14.70;99.90
4429;DHT22;2227;47.810;8.810;2022-09-23T20:56:21;14.70;99.90
4429;DHT22;2227;47.810;8.810;2022-09-23T20:58:48;14.70;99.90
4429;DHT22;2227;47.810;8.810;2022-09-23T21:01:17;14.60;99.90
4429;DHT22;2227;47.810;8.810;2022-09-23T21:03:47;14.60;99.90
4429;DHT22;2227;47.810;8.810;2022-09-23T21:06:15;14.60;99.90
4429;DHT22;2227;47.810;8.810;2022-09-23T21:08:42;14.60;99.90
4429;DHT22;2227;47.810;8.810;2022-09-23T21:11:14;14.60;99.90
4429;DHT22;2227;47.810;8.810;2022-09-23T21:13:51;14.60;99.90
4429;DHT22;2227;47.810;8.810;2022-09-23T21:16:20;14.60;99.90
4429;DHT22;2227;47.810;8.810;2022-09-23T21:18:48;14.60;99.90
4429;DHT22;2227;47.810;8.810;2022-09-23T21:21:16;14.50;99.90
4429;DHT22;2227;47.810;8.810;2022-09-23T21:23:45;14.50;99.90
4429;DHT22;2227;47.810;8.810;2022-09-23T21:26:15;14.50;99.90
4429;DHT22;2227;47.810;8.810;2022-09-23T21:28:46;14.50;99.90
4429;DHT22;2227;47.810;8.810;2022-09-23T21:31:18;14.40;99.90
4429;DHT22;2227;47.810;8.810;2022-09-23T21:33:55;14.50;99.90
4429;DHT22;2227;47.810;8.810;2022-09-23T21:36:22;14.40;99.90
4429;DHT22;2227;47.810;8.810;2022-09-23T21:38:50;14.40;99.90
4429;DHT22;2227;47.810;8.810;2022-09-23T21:41:18;14.40;99.90
4429;DHT22;2227;47.810;8.810;2022-09-23T21:43:45;14.30;99.90
4429;DHT22;2227;47.810;8.810;2022-09-23T21:46:15;14.40;99.90
4429;DHT22;2227;47.810;8.810;2022-09-23T21:48:42;14.40;99.90
4429;DHT22;2227;47.810;8.810;2022-09-23T21:51:12;14.40;99.90
4429;DHT22;2227;47.810;8.810;2022-09-23T21:53:40;14.40;99.90
4429;DHT22;2227;47.810;8.810;2022-09-23T21:56:19;14.40;99.90
4429;DHT22;2227;47.810;8.810;2022-09-23T21:58:46;14.40;99.90
4429;DHT22;2227;47.810;8.810;2022-09-23T22:01:17;14.40;99.90
4429;DHT22;2227;47.810;8.810;2022-09-23T22:03:49;14.40;99.90
4429;DHT22;2227;47.810;8.810;2022-09-23T22:06:19;14.40;99.90
4429;DHT22;2227;47.810;8.810;2022-09-23T22:09:07;14.40;99.90
4429;DHT22;2227;47.810;8.810;2022-09-23T22:11:35;14.30;99.90
4429;DHT22;2227;47.810;8.810;2022-09-23T22:14:21;14.30;99.90
4429;DHT22;2227;47.810;8.810;2022-09-23T22:16:58;14.30;99.90